CMA CGM Balzac — DIHN — position and weather

sailwx.info

Track history (hours):
 
Tides and Currents Weather Stations Pressure Air Temp Water Temp Dewpoint Dewpoint Depression Visibility Wind Speed Wind Dir Waves Ship Positions

CMA CGM Balzac

Last reported at 2014-Oct-16 00:00 UTC. Time now 2014-Oct-31 19:45 UTC.
Position N 32°06' E 030°18'.
Warning: this ship's position is 15 days out of date.

Length 300.3 m; beam 40.3 m; draft 14 m.

Type: Ship. MMSI: 211378810.

Wind from 020 at 13 knots

Waves 0.5 meters (2 feet), 2 second period

Barometer 1016.5 mb
Air temperature 22.2 ° C
Visibility: greater than 10.8 NM
Dewpoint 15.8 ° C
Water temperature 26.0 ° C

Date/timePositionNaut miles runAvg speedWind from/ knotsBaromVisibWave heightAir tempDewpointWater temp
2014-Oct-16 00:00N 32°06' E 030°18'36015.0 020 / 131016.510.8 0.522.215.826.0
2014-Oct-15 00:00N 34°00' E 023°30'64414.8 310 / 91016.010.8 0.522.218.225.0
2014-Oct-13 04:33N 37°26' E 010°58'1414.1
2014-Oct-13 03:33N 37°29' E 010°41'1514.6
2014-Oct-13 02:31N 37°32' E 010°22'1514.9
2014-Oct-13 01:32N 37°34' E 010°04'1515.1
2014-Oct-13 00:33N 37°35' E 009°45'1515.1
2014-Oct-12 23:34N 37°36' E 009°26'1715.2
2014-Oct-12 22:25N 37°37' E 009°04'4214.5
2014-Oct-12 19:32N 37°34' E 008°11'12515.0
2014-Oct-12 11:12N 37°26' E 005°35'2814.1
2014-Oct-12 09:11N 37°24' E 004°59'914.5
2014-Oct-12 08:33N 37°23' E 004°48'1514.7
2014-Oct-12 07:33N 37°22' E 004°29'1615.9
2014-Oct-12 06:33N 37°21' E 004°09'1815.1
2014-Oct-12 05:24N 37°20' E 003°47'1315.4
2014-Oct-12 04:33N 37°19' E 003°31'4615.4
2014-Oct-12 01:33N 37°13' E 002°34'4714.6
2014-Oct-11 22:20N 37°03' E 001°36'1214.6
2014-Oct-11 21:32N 37°00' E 001°22'1514.8
2014-Oct-11 20:33N 36°57' E 001°04'1714.7
2014-Oct-11 19:22N 36°53' E 000°43'1113.8
2014-Oct-11 18:33N 36°51' E 000°29'1414.1
2014-Oct-11 17:33N 36°48' E 000°12'1514.6
2014-Oct-11 16:30N 36°44' W 000°07'1514.4
2014-Oct-11 15:27N 36°40' W 000°25'23414.7
2014-Oct-10 23:34N 36°01' W 005°12'23213.5
2014-Oct-10 06:24N 37°21' W 009°43'1314.7
2014-Oct-10 05:33N 37°33' W 009°46'  
2014-Oct-07 14:33N 49°41' W 000°39'1616.2
2014-Oct-07 13:33N 49°34' W 000°18'1413.9
2014-Oct-07 12:33N 49°30' E 000°03'5 4.6
2014-Oct-07 11:33N 49°29' E 000°10'0 0.0
2014-Oct-07 10:32N 49°29' E 000°10'0 0.0
2014-Oct-07 09:32N 49°29' E 000°10'0 0.0
2014-Oct-07 08:31N 49°29' E 000°10'0 0.0
2014-Oct-07 07:31N 49°29' E 000°10'0 0.0
2014-Oct-07 06:31N 49°29' E 000°10'0 0.0
2014-Oct-07 05:33N 49°29' E 000°10'0 0.0
2014-Oct-07 04:33N 49°29' E 000°10'0 0.0
2014-Oct-07 03:32N 49°29' E 000°10'0 0.0
2014-Oct-07 02:32N 49°29' E 000°10'0 0.0
2014-Oct-07 01:31N 49°29' E 000°10'0 0.0
2014-Oct-07 00:31N 49°29' E 000°10'0 0.0
2014-Oct-06 23:31N 49°29' E 000°10'0 0.0
2014-Oct-06 22:33N 49°29' E 000°10'0 0.0
2014-Oct-06 21:33N 49°29' E 000°10'0 0.0
2014-Oct-06 20:32N 49°29' E 000°10'0 0.0
2014-Oct-06 19:29N 49°29' E 000°10'0 0.0
2014-Oct-06 18:28N 49°29' E 000°10'0 0.0
2014-Oct-06 17:31N 49°29' E 000°10'0 0.0
2014-Oct-06 16:31N 49°29' E 000°10'0 0.0
2014-Oct-06 15:33N 49°29' E 000°10'0 0.0
2014-Oct-06 14:33N 49°29' E 000°10'0 0.0
2014-Oct-06 13:32N 49°29' E 000°10'0 0.0
2014-Oct-06 12:32N 49°29' E 000°10'1 1.3
2014-Oct-06 11:33N 49°28' E 000°08'1110.6
2014-Oct-06 10:33N 49°32' W 000°07'6 6.0
2014-Oct-06 09:33N 49°37' W 000°12'5011.9
2014-Oct-06 05:21N 50°27' W 000°02'1012.2
2014-Oct-06 04:33N 50°30' E 000°12'1414.5
2014-Oct-06 03:33N 50°34' E 000°33'1615.5
2014-Oct-06 02:33N 50°42' E 000°54'1616.1
2014-Oct-06 01:34N 50°52' E 001°15'1514.6
2014-Oct-06 00:33N 51°03' E 001°30'  
Track history (hours):
 
Tides and Currents Weather Stations Pressure Air Temp Water Temp Dewpoint Dewpoint Depression Visibility Wind Speed Wind Dir Waves Ship Positions

CMA CGM Balzac

Last reported at 2014-Oct-16 00:00 UTC. Time now 2014-Oct-31 19:45 UTC.
Position N 32°06' E 030°18'.
Warning: this ship's position is 15 days out of date.

Length 300.3 m; beam 40.3 m; draft 14 m.

Type: Ship. MMSI: 211378810.

Wind from 020 at 13 knots

Waves 0.5 meters (2 feet), 2 second period

Barometer 1016.5 mb
Air temperature 22.2 ° C
Visibility: greater than 10.8 NM
Dewpoint 15.8 ° C
Water temperature 26.0 ° C

Date/timePositionNaut miles runAvg speedWind from/ knotsBaromVisibWave heightAir tempDewpointWater temp
2014-Oct-16 00:00N 32°06' E 030°18'36015.0 020 / 131016.510.8 0.522.215.826.0
2014-Oct-15 00:00N 34°00' E 023°30'64414.8 310 / 91016.010.8 0.522.218.225.0
2014-Oct-13 04:33N 37°26' E 010°58'1414.1
2014-Oct-13 03:33N 37°29' E 010°41'1514.6
2014-Oct-13 02:31N 37°32' E 010°22'1514.9
2014-Oct-13 01:32N 37°34' E 010°04'1515.1
2014-Oct-13 00:33N 37°35' E 009°45'1515.1
2014-Oct-12 23:34N 37°36' E 009°26'1715.2
2014-Oct-12 22:25N 37°37' E 009°04'4214.5
2014-Oct-12 19:32N 37°34' E 008°11'12515.0
2014-Oct-12 11:12N 37°26' E 005°35'2814.1
2014-Oct-12 09:11N 37°24' E 004°59'914.5
2014-Oct-12 08:33N 37°23' E 004°48'1514.7
2014-Oct-12 07:33N 37°22' E 004°29'1615.9
2014-Oct-12 06:33N 37°21' E 004°09'1815.1
2014-Oct-12 05:24N 37°20' E 003°47'1315.4
2014-Oct-12 04:33N 37°19' E 003°31'4615.4
2014-Oct-12 01:33N 37°13' E 002°34'4714.6
2014-Oct-11 22:20N 37°03' E 001°36'1214.6
2014-Oct-11 21:32N 37°00' E 001°22'1514.8
2014-Oct-11 20:33N 36°57' E 001°04'1714.7
2014-Oct-11 19:22N 36°53' E 000°43'1113.8
2014-Oct-11 18:33N 36°51' E 000°29'1414.1
2014-Oct-11 17:33N 36°48' E 000°12'1514.6
2014-Oct-11 16:30N 36°44' W 000°07'1514.4
2014-Oct-11 15:27N 36°40' W 000°25'23414.7
2014-Oct-10 23:34N 36°01' W 005°12'23213.5
2014-Oct-10 06:24N 37°21' W 009°43'1314.7
2014-Oct-10 05:33N 37°33' W 009°46'  
2014-Oct-07 14:33N 49°41' W 000°39'1616.2
2014-Oct-07 13:33N 49°34' W 000°18'1413.9
2014-Oct-07 12:33N 49°30' E 000°03'5 4.6
2014-Oct-07 11:33N 49°29' E 000°10'0 0.0
2014-Oct-07 10:32N 49°29' E 000°10'0 0.0
2014-Oct-07 09:32N 49°29' E 000°10'0 0.0
2014-Oct-07 08:31N 49°29' E 000°10'0 0.0
2014-Oct-07 07:31N 49°29' E 000°10'0 0.0
2014-Oct-07 06:31N 49°29' E 000°10'0 0.0
2014-Oct-07 05:33N 49°29' E 000°10'0 0.0
2014-Oct-07 04:33N 49°29' E 000°10'0 0.0
2014-Oct-07 03:32N 49°29' E 000°10'0 0.0
2014-Oct-07 02:32N 49°29' E 000°10'0 0.0
2014-Oct-07 01:31N 49°29' E 000°10'0 0.0
2014-Oct-07 00:31N 49°29' E 000°10'0 0.0
2014-Oct-06 23:31N 49°29' E 000°10'0 0.0
2014-Oct-06 22:33N 49°29' E 000°10'0 0.0
2014-Oct-06 21:33N 49°29' E 000°10'0 0.0
2014-Oct-06 20:32N 49°29' E 000°10'0 0.0
2014-Oct-06 19:29N 49°29' E 000°10'0 0.0
2014-Oct-06 18:28N 49°29' E 000°10'0 0.0
2014-Oct-06 17:31N 49°29' E 000°10'0 0.0
2014-Oct-06 16:31N 49°29' E 000°10'0 0.0
2014-Oct-06 15:33N 49°29' E 000°10'0 0.0
2014-Oct-06 14:33N 49°29' E 000°10'0 0.0
2014-Oct-06 13:32N 49°29' E 000°10'0 0.0
2014-Oct-06 12:32N 49°29' E 000°10'1 1.3
2014-Oct-06 11:33N 49°28' E 000°08'1110.6
2014-Oct-06 10:33N 49°32' W 000°07'6 6.0
2014-Oct-06 09:33N 49°37' W 000°12'5011.9
2014-Oct-06 05:21N 50°27' W 000°02'1012.2
2014-Oct-06 04:33N 50°30' E 000°12'1414.5
2014-Oct-06 03:33N 50°34' E 000°33'1615.5
2014-Oct-06 02:33N 50°42' E 000°54'1616.1
2014-Oct-06 01:34N 50°52' E 001°15'1514.6
2014-Oct-06 00:33N 51°03' E 001°30'  

Dump ship's entire track history